Time;durP1;ratioP1;P1;durP2;ratioP2;P2;SDS_P1;SDS_P2;PMS_P1;PMS_P2;Temp;Humidity;BMP_temperature;BMP_pressure;BME280_temperature;BME280_humidity;BME280_pressure;Samples;Min_cycle;Max_cycle;Signal;HPM_P1;HPM_P2
2022/09/03 00:10:02;;;;;;;3.95;2.05;;;;;;;17.00;38.86;100678.47;31497899;28;20049;-80
2022/09/03 00:25:11;;;;;;;7.72;2.67;;;;;;;16.97;39.28;100676.63;31484288;28;20048;-81
2022/09/03 00:40:30;;;;;;;13.43;4.95;;;;;;;17.03;38.40;100675.56;31478711;28;20055;-80
2022/09/03 00:55:32;;;;;;;15.90;6.47;;;;;;;17.12;38.34;100685.06;31475994;28;20143;-81
2022/09/03 01:11:01;;;;;;;16.67;5.80;;;;;;;17.05;38.42;100691.56;31465565;28;20056;-81
2022/09/03 01:26:22;;;;;;;13.80;3.92;;;;;;;16.90;39.56;100679.63;31480655;28;20056;-80
2022/09/03 01:42:16;;;;;;;9.23;3.38;;;;;;;16.57;40.38;100666.25;31504737;28;20052;-80
2022/09/03 01:57:47;;;;;;;9.88;4.18;;;;;;;16.52;39.80;100660.59;31472008;28;20059;-80
2022/09/03 02:12:55;;;;;;;18.35;4.40;;;;;;;16.46;40.73;100657.66;31473531;28;20501;-81
2022/09/03 02:27:59;;;;;;;9.35;3.53;;;;;;;16.33;40.37;100670.63;31469829;28;20054;-81
2022/09/03 02:43:04;;;;;;;8.27;3.65;;;;;;;16.34;40.93;100669.41;31480973;28;20060;-81
2022/09/03 02:58:07;;;;;;;2.67;1.88;;;;;;;16.31;40.29;100662.06;31498610;28;20051;-81
2022/09/03 03:13:10;;;;;;;2.58;1.27;;;;;;;16.23;40.23;100688.19;31511803;28;20559;-80
2022/09/03 03:28:12;;;;;;;2.65;1.33;;;;;;;16.34;39.79;100689.34;31488132;28;20053;-81
2022/09/03 03:43:14;;;;;;;3.53;1.30;;;;;;;16.56;39.72;100685.88;31495526;28;20049;-80
2022/09/03 03:58:16;;;;;;;4.13;1.60;;;;;;;16.87;39.50;100696.97;31499607;28;20512;-80
2022/09/03 04:13:18;;;;;;;4.22;1.75;;;;;;;17.20;39.17;100684.38;31489536;28;20044;-81
2022/09/03 04:28:21;;;;;;;8.70;2.28;;;;;;;17.51;39.04;100689.81;31487453;28;20052;-81
2022/09/03 04:43:27;;;;;;;2.88;1.80;;;;;;;18.36;38.02;100697.38;31477323;28;20140;-81
2022/09/03 04:58:30;;;;;;;5.40;2.43;;;;;;;18.92;37.00;100709.13;31476608;28;20094;-81
2022/09/03 05:13:33;;;;;;;8.57;2.28;;;;;;;19.04;36.34;100688.94;31479262;28;20106;-82
2022/09/03 05:28:38;;;;;;;5.93;1.60;;;;;;;19.82;35.30;100668.78;31480802;28;20047;-81
2022/09/03 05:43:41;;;;;;;3.53;1.80;;;;;;;19.91;34.65;100671.47;31475559;28;20063;-81
2022/09/03 05:58:46;;;;;;;2.92;1.60;;;;;;;20.40;34.15;100675.75;31486428;28;20060;-82
2022/09/03 06:13:48;;;;;;;6.82;2.08;;;;;;;21.97;32.32;100657.69;31468020;28;20067;-82
2022/09/03 06:28:53;;;;;;;5.63;1.60;;;;;;;22.58;31.08;100629.25;31505293;28;20062;-83
2022/09/03 06:44:01;;;;;;;2.40;1.48;;;;;;;22.87;30.37;100617.19;31510511;28;20095;-83
2022/09/03 06:59:12;;;;;;;2.80;1.33;;;;;;;23.06;30.18;100596.97;31495973;28;20572;-82
2022/09/03 07:14:19;;;;;;;3.65;1.35;;;;;;;23.66;29.88;100597.06;31517391;28;20505;-84
2022/09/03 07:29:20;;;;;;;3.78;1.17;;;;;;;24.52;29.39;100590.06;31498307;28;20045;-82
2022/09/03 07:44:23;;;;;;;8.30;1.53;;;;;;;24.78;29.03;100568.38;31478881;28;20403;-80
2022/09/03 07:59:25;;;;;;;;;;;;;;;25.49;28.17;100543.75;31466476;28;20142;-82
2022/09/03 08:14:29;;;;;;;4.35;1.50;;;;;;;25.99;27.89;100505.81;31488658;28;20290;-82
2022/09/03 08:29:31;;;;;;;15.85;1.90;;;;;;;27.16;26.88;100513.22;31477787;28;20044;-82
2022/09/03 08:44:50;;;;;;;3.78;1.27;;;;;;;26.45;27.04;100485.56;31494326;28;20152;-84
2022/09/03 08:59:58;;;;;;;3.90;1.45;;;;;;;26.39;27.31;100482.81;31490403;28;20131;-86
2022/09/03 09:15:17;;;;;;;6.80;1.45;;;;;;;27.06;26.63;100461.91;31464336;28;20041;-77
2022/09/03 09:30:19;;;;;;;7.05;2.03;;;;;;;27.88;25.95;100463.38;31465806;28;20051;-81
2022/09/03 09:45:22;;;;;;;5.07;1.02;;;;;;;28.77;24.89;100454.28;31488752;28;20059;-79
2022/09/03 10:00:24;;;;;;;3.65;1.67;;;;;;;27.27;26.47;100451.78;31495409;28;20044;-80
2022/09/03 10:15:47;;;;;;;6.65;2.17;;;;;;;27.23;27.28;100429.00;31497960;28;20047;-81
2022/09/03 10:31:04;;;;;;;3.58;1.15;;;;;;;26.83;27.26;100430.75;31497464;28;20055;-82
2022/09/03 10:46:18;;;;;;;6.55;1.75;;;;;;;26.82;27.51;100410.50;31495647;28;20063;-85
2022/09/03 11:01:53;;;;;;;7.82;2.20;;;;;;;27.35;26.99;100396.94;31484472;28;20048;-83
2022/09/03 11:17:05;;;;;;;3.45;2.00;;;;;;;26.59;27.77;100384.16;31460568;28;20132;-82
2022/09/03 11:32:42;;;;;;;5.80;2.43;;;;;;;26.67;28.65;100373.97;31505454;28;20488;-83
2022/09/03 11:47:45;;;;;;;5.32;2.50;;;;;;;25.75;29.04;100365.44;31508475;28;20113;-80
2022/09/03 12:02:57;;;;;;;4.53;1.45;;;;;;;25.39;29.20;100367.44;31516472;28;20180;-81
2022/09/03 12:18:19;;;;;;;7.57;2.80;;;;;;;25.33;29.99;100361.16;31499523;28;20401;-78
2022/09/03 12:33:22;;;;;;;10.55;1.77;;;;;;;24.94;29.99;100343.91;31510984;28;20056;-79
2022/09/03 12:48:25;;;;;;;4.25;1.63;;;;;;;24.61;30.76;100317.78;31536363;28;20110;-81
2022/09/03 13:03:53;;;;;;;2.95;1.50;;;;;;;24.59;31.03;100309.22;31508549;28;20053;-80
2022/09/03 13:19:16;;;;;;;5.07;1.45;;;;;;;24.34;31.07;100299.22;31440865;28;20051;-79
2022/09/03 13:34:30;;;;;;;4.47;1.47;;;;;;;24.26;31.95;100301.03;31479188;28;20052;-79
2022/09/03 14:05:22;;;;;;;5.88;1.90;;;;;;;24.11;33.12;100304.78;31491743;28;20510;-80
2022/09/03 14:20:28;;;;;;;6.33;2.77;;;;;;;23.90;32.66;100270.28;31490242;28;20059;-79
2022/09/03 14:35:57;;;;;;;3.97;2.00;;;;;;;23.67;33.46;100241.09;31489334;28;20052;-79
2022/09/03 14:51:43;;;;;;;4.75;2.60;;;;;;;23.53;34.14;100222.72;31498401;28;20070;-79
2022/09/03 15:07:22;;;;;;;4.03;2.28;;;;;;;23.28;34.20;100230.75;31490341;28;20049;-80
2022/09/03 15:22:52;;;;;;;4.18;1.67;;;;;;;23.23;34.29;100255.69;31514233;28;20065;-80
2022/09/03 15:38:13;;;;;;;2.90;1.75;;;;;;;23.00;34.64;100261.19;31467584;28;20052;-80
2022/09/03 15:53:40;;;;;;;3.25;1.80;;;;;;;22.58;34.80;100284.16;31505811;28;20052;-79
2022/09/03 16:08:49;;;;;;;3.33;1.60;;;;;;;22.27;35.39;100284.25;31526360;28;20052;-79
2022/09/03 16:24:09;;;;;;;6.25;1.42;;;;;;;22.01;35.32;100251.94;31498260;28;20052;-80
2022/09/03 16:39:20;;;;;;;12.35;1.67;;;;;;;21.86;35.18;100240.28;31484969;28;20053;-80
2022/09/03 16:55:05;;;;;;;5.43;1.30;;;;;;;21.80;36.24;100264.34;31500469;28;20505;-80
2022/09/03 17:10:13;;;;;;;4.20;1.60;;;;;;;21.14;38.80;100276.31;31498717;28;20052;-80
2022/09/03 17:25:43;;;;;;;2.88;1.77;;;;;;;20.99;39.60;100303.25;31493998;28;20059;-80
2022/09/03 17:41:21;;;;;;;4.07;1.70;;;;;;;20.70;41.32;100326.25;31492024;28;20044;-80
2022/09/03 17:56:30;;;;;;;3.15;1.80;;;;;;;20.15;45.87;100359.25;31481428;28;20131;-77
2022/09/03 18:11:39;;;;;;;5.15;1.90;;;;;;;19.37;52.55;100397.97;31467977;28;20519;-77
2022/09/03 20:15:43;;;;;;;4.60;2.00;;;;;;;14.62;99.61;100388.97;31466545;28;20052;-78
2022/09/03 20:31:21;;;;;;;4.40;2.13;;;;;;;14.69;100.00;100428.94;31506462;28;20044;-77
2022/09/03 20:46:38;;;;;;;7.53;3.90;;;;;;;14.70;100.00;100467.97;31456311;28;20053;-76
2022/09/03 21:02:04;;;;;;;5.30;2.03;;;;;;;14.58;100.00;100445.69;31485780;28;20394;-77
2022/09/03 21:17:27;;;;;;;11.07;1.87;;;;;;;14.25;100.00;100449.78;31485532;28;20135;-77
2022/09/03 21:32:55;;;;;;;3.00;1.80;;;;;;;14.10;100.00;100443.97;31469088;28;20067;-76
2022/09/03 21:48:12;;;;;;;4.33;2.10;;;;;;;14.10;100.00;100441.22;31475511;28;20502;-76
2022/09/03 22:03:15;;;;;;;8.80;2.73;;;;;;;14.10;100.00;100448.66;31481081;28;20539;-76
2022/09/03 22:18:24;;;;;;;2.90;1.70;;;;;;;14.16;100.00;100436.00;31471046;28;20522;-75
2022/09/03 22:34:14;;;;;;;4.17;1.83;;;;;;;13.83;100.00;100408.84;31472829;28;20076;-77
2022/09/03 22:49:24;;;;;;;2.97;1.10;;;;;;;13.68;100.00;100417.88;31437346;28;20059;-76
2022/09/03 23:05:05;;;;;;;1.67;1.53;;;;;;;13.67;100.00;100414.38;31460927;28;20770;-76
2022/09/03 23:20:19;;;;;;;3.37;1.40;;;;;;;13.49;100.00;100411.34;31490800;28;20110;-75
2022/09/03 23:35:29;;;;;;;3.83;1.77;;;;;;;13.70;100.00;100399.84;31481703;28;20422;-75
2022/09/03 23:50:46;;;;;;;3.27;1.60;;;;;;;13.65;100.00;100392.22;31493431;28;20070;-78
